createdAt,value
2018-03-06T00:01:50.676Z,72.57
2018-03-06T00:04:19.061Z,72.24
2018-03-06T00:06:48.175Z,72.13
2018-03-06T00:09:16.946Z,72.33
2018-03-06T00:11:46.411Z,72.28
2018-03-06T00:14:15.539Z,72.41
2018-03-06T00:16:43.924Z,72.44
2018-03-06T00:19:12.283Z,72.57
2018-03-06T00:21:40.651Z,72.70
2018-03-06T00:24:09.393Z,72.88
2018-03-06T00:26:37.764Z,73.00
2018-03-06T00:29:06.108Z,73.15
2018-03-06T00:31:34.616Z,73.42
2018-03-06T00:34:02.992Z,73.53
2018-03-06T00:36:31.328Z,73.37
2018-03-06T00:39:00.536Z,73.52
2018-03-06T00:41:29.284Z,73.34
2018-03-06T00:43:57.642Z,73.23
2018-03-06T00:46:26.764Z,73.38
2018-03-06T00:48:56.283Z,73.60
2018-03-06T00:51:25.392Z,73.63
2018-03-06T00:53:53.772Z,73.47
2018-03-06T00:56:22.150Z,73.47
2018-03-06T00:58:50.483Z,74.06
2018-03-06T01:01:18.863Z,74.20
2018-03-06T01:03:47.200Z,73.73
2018-03-06T01:06:16.320Z,73.48
2018-03-06T01:08:44.696Z,74.21
2018-03-06T01:11:13.022Z,74.39
2018-03-06T01:13:42.170Z,74.51
2018-03-06T01:16:11.262Z,74.17
2018-03-06T01:18:40.399Z,74.28
2018-03-06T01:21:09.504Z,74.46
2018-03-06T01:23:38.652Z,74.32
2018-03-06T01:26:07.068Z,74.39
2018-03-06T01:28:35.432Z,74.04
2018-03-06T01:31:03.804Z,74.08
2018-03-06T01:33:32.133Z,73.89
2018-03-06T01:36:00.489Z,74.02
2018-03-06T01:38:29.591Z,74.09
2018-03-06T01:40:58.719Z,74.83
2018-03-06T01:43:27.093Z,74.35
2018-03-06T01:45:55.434Z,74.46
2018-03-06T01:48:24.944Z,74.72
2018-03-06T01:50:53.697Z,75.10
2018-03-06T01:53:22.055Z,75.23
2018-03-06T01:55:50.385Z,75.30
2018-03-06T01:58:19.873Z,75.41
2018-03-06T02:00:48.210Z,75.55
2018-03-06T02:03:16.570Z,75.79
2018-03-06T02:05:44.899Z,75.20
2018-03-06T02:08:13.243Z,75.03
2018-03-06T02:10:42.063Z,75.11
2018-03-06T02:13:10.397Z,75.00
2018-03-06T02:15:38.743Z,75.03
2018-03-06T02:18:07.106Z,75.33
2018-03-06T02:20:35.491Z,75.59
2018-03-06T02:23:04.671Z,75.89
2018-03-06T02:25:34.549Z,75.85
2018-03-06T02:28:02.903Z,76.16
2018-03-06T02:30:31.280Z,76.20
2018-03-06T02:32:59.643Z,76.69
2018-03-06T02:35:28.803Z,76.63
2018-03-06T02:37:57.138Z,76.41
2018-03-06T02:40:25.469Z,76.47
2018-03-06T02:42:53.849Z,76.55
2018-03-06T02:45:22.217Z,76.71
2018-03-06T02:47:50.561Z,76.98
2018-03-06T02:50:19.673Z,77.09
2018-03-06T02:52:48.039Z,77.16
2018-03-06T02:55:16.391Z,77.29
2018-03-06T02:57:44.761Z,77.19
2018-03-06T03:00:13.911Z,77.16
2018-03-06T03:02:42.271Z,77.10
2018-03-06T03:05:11.004Z,77.27
2018-03-06T03:07:40.141Z,77.39
2018-03-06T03:10:08.471Z,77.67
2018-03-06T03:12:36.871Z,77.79
2018-03-06T03:15:05.979Z,77.95
2018-03-06T03:17:34.315Z,78.12
2018-03-06T03:20:03.115Z,78.22
2018-03-06T03:22:32.636Z,78.30
2018-03-06T03:25:01.763Z,78.33
2018-03-06T03:27:30.091Z,78.54
2018-03-06T03:29:58.464Z,78.67
2018-03-06T03:32:28.337Z,78.66
2018-03-06T03:34:57.809Z,78.68
2018-03-06T03:37:26.138Z,78.72
2018-03-06T03:39:54.502Z,78.80
2018-03-06T03:42:22.860Z,78.90
2018-03-06T03:44:51.228Z,79.01
2018-03-06T03:47:19.553Z,79.05
2018-03-06T03:49:47.917Z,79.17
2018-03-06T03:52:16.246Z,79.28
2018-03-06T03:54:45.018Z,79.42
2018-03-06T03:57:14.131Z,79.41
2018-03-06T03:59:42.506Z,79.43
2018-03-06T04:02:11.635Z,79.53
2018-03-06T04:04:39.974Z,79.62
2018-03-06T04:07:09.079Z,79.78
2018-03-06T04:09:38.202Z,79.73
2018-03-06T04:12:06.522Z,80.01
2018-03-06T04:14:36.388Z,80.14
2018-03-06T04:17:04.740Z,80.04
2018-03-06T04:19:33.862Z,80.00
2018-03-06T04:22:02.220Z,79.82
2018-03-06T04:24:30.986Z,79.75
2018-03-06T04:26:59.721Z,79.71
2018-03-06T04:29:28.100Z,79.58
2018-03-06T04:31:56.479Z,79.36
2018-03-06T04:34:24.822Z,79.56
2018-03-06T04:36:53.554Z,79.48
2018-03-06T04:39:23.433Z,79.52
2018-03-06T04:41:51.967Z,79.48
2018-03-06T04:44:20.302Z,79.51
2018-03-06T04:46:48.722Z,79.56
2018-03-06T04:49:17.458Z,79.49
2018-03-06T04:51:45.833Z,79.48
2018-03-06T04:54:14.166Z,79.43
2018-03-06T04:56:42.542Z,79.37
2018-03-06T04:59:10.917Z,79.29
2018-03-06T05:01:39.264Z,79.20
2018-03-06T05:04:07.767Z,79.20
2018-03-06T05:06:36.138Z,79.12
2018-03-06T05:09:04.502Z,79.12
2018-03-06T05:11:34.000Z,79.14
2018-03-06T05:14:03.187Z,79.05
2018-03-06T05:16:31.575Z,78.83
2018-03-06T05:18:59.914Z,78.73
2018-03-06T05:21:29.021Z,78.57
2018-03-06T05:23:58.162Z,78.52
2018-03-06T05:26:26.502Z,78.45
2018-03-06T05:28:54.867Z,78.39
2018-03-06T05:31:23.602Z,78.24
2018-03-06T05:33:51.988Z,78.11
2018-03-06T05:36:20.342Z,78.09
2018-03-06T05:38:49.466Z,78.19
2018-03-06T05:41:17.829Z,78.11
2018-03-06T05:43:46.194Z,77.95
2018-03-06T05:46:14.566Z,77.75
2018-03-06T05:48:44.073Z,77.67
2018-03-06T05:51:12.414Z,77.68
2018-03-06T05:53:41.553Z,77.58
2018-03-06T05:56:10.750Z,77.54
2018-03-06T05:58:39.228Z,77.58
2018-03-06T06:01:08.916Z,77.53
2018-03-06T06:03:38.917Z,77.33
2018-03-06T06:06:08.382Z,76.92
2018-03-06T06:08:36.754Z,76.74
2018-03-06T06:11:05.921Z,76.53
2018-03-06T06:13:34.266Z,76.34
2018-03-06T06:16:03.413Z,76.07
2018-03-06T06:18:32.120Z,75.62
2018-03-06T06:21:00.453Z,75.07
2018-03-06T06:23:29.936Z,74.75
2018-03-06T06:25:58.261Z,74.58
2018-03-06T06:28:26.607Z,74.39
2018-03-06T06:30:55.842Z,74.06
2018-03-06T06:33:24.233Z,73.77
2018-03-06T06:35:52.957Z,73.22
2018-03-06T06:38:21.313Z,72.71
2018-03-06T06:40:49.662Z,72.10
2018-03-06T06:43:18.013Z,71.87
2018-03-06T06:45:46.337Z,71.53
2018-03-06T06:48:14.668Z,71.06
2018-03-06T06:50:42.995Z,70.80
2018-03-06T06:53:11.342Z,70.63
2018-03-06T06:55:39.763Z,70.02
2018-03-06T06:58:08.056Z,70.96
2018-03-06T07:00:36.805Z,70.61
2018-03-06T07:03:05.141Z,69.58
2018-03-06T07:05:34.219Z,68.60
2018-03-06T07:08:03.324Z,68.54
2018-03-06T07:10:32.447Z,68.17
2018-03-06T07:13:00.764Z,67.56
2018-03-06T07:15:30.256Z,67.34
2018-03-06T07:17:58.973Z,67.70
2018-03-06T07:20:27.314Z,67.01
2018-03-06T07:22:56.011Z,66.60
2018-03-06T07:25:24.750Z,66.26
2018-03-06T07:27:53.476Z,66.62
2018-03-06T07:30:22.554Z,66.29
2018-03-06T07:32:51.697Z,65.73
2018-03-06T07:35:20.024Z,66.03
2018-03-06T07:37:48.327Z,66.33
2018-03-06T07:40:16.660Z,66.14
2018-03-06T07:42:45.017Z,64.57
2018-03-06T07:45:14.123Z,64.17
2018-03-06T07:47:43.243Z,63.39
2018-03-06T07:50:11.590Z,64.36
2018-03-06T07:52:40.676Z,64.93
2018-03-06T07:55:09.796Z,64.78
2018-03-06T07:57:38.196Z,64.74
2018-03-06T08:00:06.509Z,64.29
2018-03-06T08:02:34.825Z,63.58
2018-03-06T08:05:03.189Z,62.84
2018-03-06T08:07:31.912Z,62.29
2018-03-06T08:10:00.233Z,62.07
2018-03-06T08:12:28.585Z,62.72
2018-03-06T08:14:56.892Z,63.76
2018-03-06T08:17:25.238Z,63.58
2018-03-06T08:19:53.593Z,63.42
2018-03-06T08:22:21.904Z,63.49
2018-03-06T08:24:50.268Z,63.40
2018-03-06T08:27:18.580Z,63.34
2018-03-06T08:29:46.917Z,62.88
2018-03-06T08:32:15.334Z,61.88
2018-03-06T08:34:43.653Z,62.44
2018-03-06T08:37:12.012Z,62.11
2018-03-06T08:39:41.104Z,60.99
2018-03-06T08:42:10.226Z,60.77
2018-03-06T08:44:39.305Z,61.51
2018-03-06T08:47:07.638Z,61.79
2018-03-06T08:49:35.952Z,60.50
2018-03-06T08:52:05.085Z,60.09
2018-03-06T08:54:33.428Z,59.03
2018-03-06T08:57:02.880Z,60.41
2018-03-06T08:59:31.227Z,62.06
2018-03-06T09:01:59.613Z,60.97
2018-03-06T09:04:27.960Z,59.84
2018-03-06T09:06:57.094Z,60.05
2018-03-06T09:09:25.431Z,61.01
2018-03-06T09:11:54.520Z,60.81
2018-03-06T09:14:23.264Z,61.70
2018-03-06T09:16:51.612Z,61.01
2018-03-06T09:19:19.987Z,60.46
2018-03-06T09:21:48.320Z,60.99
2018-03-06T09:24:16.667Z,59.28
2018-03-06T09:26:45.020Z,57.75
2018-03-06T09:29:13.330Z,56.51
2018-03-06T09:31:43.121Z,55.16
2018-03-06T09:34:11.434Z,55.83
2018-03-06T09:36:39.796Z,56.69
2018-03-06T09:39:08.108Z,57.96
2018-03-06T09:41:37.178Z,58.16
2018-03-06T09:44:05.520Z,56.93
2018-03-06T09:46:33.836Z,57.63
2018-03-06T09:49:02.204Z,56.49
2018-03-06T09:51:30.576Z,55.80
2018-03-06T09:53:58.904Z,57.24
2018-03-06T09:56:27.978Z,55.15
2018-03-06T09:58:56.321Z,55.30
2018-03-06T10:01:24.676Z,55.89
2018-03-06T10:06:21.334Z,56.85
2018-03-06T10:08:49.654Z,56.34
2018-03-06T10:11:17.981Z,56.53
2018-03-06T10:13:46.299Z,55.74
2018-03-06T10:16:14.727Z,56.13
2018-03-06T10:18:43.049Z,56.30
2018-03-06T10:21:11.397Z,56.80
2018-03-06T10:23:39.733Z,56.63
2018-03-06T10:26:08.135Z,56.80
2018-03-06T10:28:37.627Z,55.61
2018-03-06T10:31:06.708Z,56.28
2018-03-06T10:33:35.052Z,55.71
2018-03-06T10:36:03.365Z,54.03
2018-03-06T10:38:32.471Z,52.20
2018-03-06T10:41:01.559Z,52.77
2018-03-06T10:43:29.926Z,53.23
2018-03-06T10:45:58.266Z,54.42
2018-03-06T10:48:26.627Z,53.12
2018-03-06T10:50:54.931Z,52.18
2018-03-06T10:53:23.255Z,52.20
2018-03-06T10:55:52.371Z,53.70
2018-03-06T10:58:20.703Z,55.92
2018-03-06T11:00:49.046Z,57.45
2018-03-06T11:03:23.155Z,56.69
2018-03-06T11:05:51.463Z,57.43
2018-03-06T11:08:19.845Z,59.12
2018-03-06T11:10:48.181Z,61.51
2018-03-06T11:13:16.525Z,63.22
2018-03-06T11:15:44.844Z,64.02
2018-03-06T11:18:13.186Z,64.50
2018-03-06T11:20:42.408Z,64.99
2018-03-06T11:23:10.743Z,65.43
2018-03-06T11:25:39.842Z,65.60
2018-03-06T11:28:08.917Z,66.12
2018-03-06T11:30:37.257Z,66.39
2018-03-06T11:33:05.604Z,66.13
2018-03-06T11:35:33.938Z,66.82
2018-03-06T11:38:02.289Z,67.11
2018-03-06T11:40:30.678Z,67.23
2018-03-06T11:42:59.013Z,66.91
2018-03-06T11:45:28.077Z,67.62
2018-03-06T11:47:56.422Z,67.86
2018-03-06T11:50:24.742Z,67.97
2018-03-06T11:52:53.096Z,69.76
2018-03-06T11:55:21.421Z,69.64
2018-03-06T11:57:49.740Z,69.75
2018-03-06T12:00:18.111Z,70.20
2018-03-06T12:02:46.426Z,70.32
2018-03-06T12:05:14.774Z,70.16
2018-03-06T12:07:43.107Z,70.79
2018-03-06T12:10:12.227Z,71.55
2018-03-06T12:12:40.540Z,72.38
2018-03-06T12:15:08.892Z,72.00
2018-03-06T12:17:37.242Z,73.67
2018-03-06T12:20:05.596Z,75.05
2018-03-06T12:22:34.687Z,74.70
2018-03-06T12:25:03.810Z,74.72
2018-03-06T12:27:32.126Z,74.52
2018-03-06T12:30:00.454Z,74.92
2018-03-06T12:32:29.574Z,75.11
2018-03-06T12:34:57.894Z,75.77
2018-03-06T12:37:26.241Z,75.38
2018-03-06T12:39:54.549Z,75.18
2018-03-06T12:42:22.902Z,76.15
2018-03-06T12:44:51.201Z,76.97
2018-03-06T12:47:19.549Z,77.32
2018-03-06T12:49:47.864Z,76.72
2018-03-06T12:52:16.227Z,77.73
2018-03-06T12:54:44.596Z,78.59
2018-03-06T12:57:12.888Z,78.50
2018-03-06T12:59:41.196Z,78.76
2018-03-06T13:02:10.308Z,78.23
2018-03-06T13:04:39.399Z,76.80
2018-03-06T13:07:07.776Z,75.67
2018-03-06T13:09:36.869Z,76.65
2018-03-06T13:12:05.233Z,77.26
2018-03-06T13:14:34.366Z,78.14
2018-03-06T13:17:02.682Z,78.14
2018-03-06T13:19:30.991Z,78.63
2018-03-06T13:21:59.337Z,78.89
2018-03-06T13:24:27.686Z,79.43
2018-03-06T13:26:56.038Z,79.58
2018-03-06T13:29:24.404Z,78.59
2018-03-06T13:31:52.732Z,78.80
2018-03-06T13:34:21.090Z,78.94
2018-03-06T13:36:49.464Z,78.63
2018-03-06T13:39:17.824Z,78.76
2018-03-06T13:41:46.170Z,79.09
2018-03-06T13:44:15.289Z,79.89
2018-03-06T13:46:43.653Z,79.69
2018-03-06T13:49:11.974Z,78.99
2018-03-06T13:51:41.085Z,78.04
2018-03-06T13:54:09.417Z,78.82
2018-03-06T13:56:37.818Z,79.12
2018-03-06T13:59:06.163Z,79.71
2018-03-06T14:01:34.885Z,79.83
2018-03-06T14:04:03.232Z,80.18
2018-03-06T14:06:31.599Z,80.86
2018-03-06T14:09:00.733Z,81.04
2018-03-06T14:11:29.081Z,80.77
2018-03-06T14:13:57.411Z,80.63
2018-03-06T14:16:25.763Z,80.29
2018-03-06T14:18:54.079Z,81.33
2018-03-06T14:21:22.460Z,81.85
2018-03-06T14:23:50.768Z,82.06
2018-03-06T14:26:19.131Z,82.07
2018-03-06T14:28:48.253Z,81.90
2018-03-06T14:31:16.621Z,82.17
2018-03-06T14:33:44.953Z,82.41
2018-03-06T14:36:14.066Z,82.06
2018-03-06T14:38:42.391Z,82.04
2018-03-06T14:41:11.507Z,82.50
2018-03-06T14:43:39.864Z,82.80
2018-03-06T14:46:08.211Z,82.82
2018-03-06T14:48:36.921Z,83.19
2018-03-06T14:51:05.277Z,83.42
2018-03-06T14:53:33.625Z,83.17
2018-03-06T14:56:02.101Z,83.41
2018-03-06T14:58:31.817Z,83.61
2018-03-06T15:01:00.153Z,83.41
2018-03-06T15:03:28.484Z,83.11
2018-03-06T15:05:56.817Z,83.47
2018-03-06T15:08:25.159Z,83.47
2018-03-06T15:10:53.693Z,83.57
2018-03-06T15:13:22.191Z,83.83
2018-03-06T15:15:50.977Z,84.22
2018-03-06T15:18:19.336Z,84.18
2018-03-06T15:20:47.649Z,83.79
2018-03-06T15:23:17.004Z,84.29
2018-03-06T15:25:45.330Z,84.60
2018-03-06T15:28:14.308Z,84.75
2018-03-06T15:30:42.792Z,84.90
2018-03-06T15:33:11.944Z,85.04
2018-03-06T15:35:40.339Z,85.30
2018-03-06T15:38:08.660Z,85.45
2018-03-06T15:40:38.343Z,85.46
2018-03-06T15:43:08.045Z,85.24
2018-03-06T15:45:36.368Z,85.44
2018-03-06T15:48:05.483Z,85.72
2018-03-06T15:50:33.869Z,85.95
2018-03-06T15:53:02.511Z,86.10
2018-03-06T15:55:32.870Z,86.21
2018-03-06T15:58:02.148Z,86.27
2018-03-06T16:00:30.621Z,86.29
2018-03-06T16:02:59.457Z,86.31
2018-03-06T16:05:31.157Z,86.45
2018-03-06T16:08:00.801Z,86.44
2018-03-06T16:10:29.229Z,86.48
2018-03-06T16:12:58.052Z,86.42
2018-03-06T16:15:28.494Z,86.49
2018-03-06T16:17:57.018Z,86.50
2018-03-06T16:20:26.255Z,86.68
2018-03-06T16:22:54.918Z,86.63
2018-03-06T16:25:24.380Z,86.72
2018-03-06T16:27:52.702Z,86.68
2018-03-06T16:30:21.165Z,86.70
2018-03-06T16:32:49.537Z,86.65
2018-03-06T16:35:18.313Z,86.66
2018-03-06T16:37:47.886Z,86.79
2018-03-06T16:40:16.726Z,86.66
2018-03-06T16:42:45.165Z,86.82
2018-03-06T16:45:13.492Z,86.80
2018-03-06T16:47:41.859Z,86.82
2018-03-06T16:50:11.381Z,86.76
2018-03-06T16:52:40.868Z,86.65
2018-03-06T16:55:09.608Z,86.48
2018-03-06T16:57:38.032Z,86.58
2018-03-06T17:00:06.493Z,86.68
2018-03-06T17:02:35.234Z,86.77
2018-03-06T17:05:03.593Z,86.74
2018-03-06T17:07:31.906Z,86.80
2018-03-06T17:10:00.242Z,87.07
2018-03-06T17:12:28.570Z,86.94
2018-03-06T17:14:57.327Z,86.98
2018-03-06T17:17:26.417Z,87.06
2018-03-06T17:19:55.155Z,87.11
2018-03-06T17:22:23.513Z,87.11
2018-03-06T17:24:51.850Z,87.06
2018-03-06T17:27:20.970Z,87.22
2018-03-06T17:29:49.283Z,87.26
2018-03-06T17:32:17.627Z,87.21
2018-03-06T17:34:45.974Z,87.26
2018-03-06T17:37:15.063Z,87.47
2018-03-06T17:39:43.405Z,87.41
2018-03-06T17:42:11.756Z,87.49
2018-03-06T17:44:40.098Z,87.46
2018-03-06T17:47:09.840Z,87.59
2018-03-06T17:49:38.935Z,87.47
2018-03-06T17:52:08.055Z,87.58
2018-03-06T17:54:36.364Z,87.60
2018-03-06T17:57:04.724Z,87.59
2018-03-06T17:59:33.067Z,87.60
2018-03-06T18:02:01.396Z,87.63
2018-03-06T18:04:29.753Z,87.75
2018-03-06T18:06:58.085Z,87.76
2018-03-06T18:09:26.485Z,87.70
2018-03-06T18:11:54.807Z,87.76
2018-03-06T18:14:23.152Z,87.92
2018-03-06T18:16:51.509Z,87.90
2018-03-06T18:19:19.827Z,88.01
2018-03-06T18:21:48.169Z,87.97
2018-03-06T18:24:17.246Z,87.90
2018-03-06T18:26:45.598Z,88.00
2018-03-06T18:29:13.942Z,88.10
2018-03-06T18:31:42.312Z,88.16
2018-03-06T18:34:11.430Z,88.29
2018-03-06T18:36:39.751Z,88.32
2018-03-06T18:39:08.106Z,88.35
2018-03-06T18:41:36.468Z,88.31
2018-03-06T18:44:04.792Z,88.38
2018-03-06T18:46:33.562Z,88.37
2018-03-06T18:49:02.655Z,88.41
2018-03-06T18:51:32.370Z,88.49
2018-03-06T18:54:01.471Z,88.55
2018-03-06T18:56:29.787Z,88.46
2018-03-06T18:58:58.133Z,88.58
2018-03-06T19:05:16.545Z,88.56
2018-03-06T19:07:44.920Z,88.59
2018-03-06T19:10:13.265Z,88.61
2018-03-06T19:12:41.607Z,88.61
2018-03-06T19:15:10.695Z,88.64
2018-03-06T19:17:39.817Z,88.67
2018-03-06T19:20:08.139Z,88.62
2018-03-06T19:22:36.540Z,88.64
2018-03-06T19:25:04.942Z,88.62
2018-03-06T19:27:33.252Z,88.61
2018-03-06T19:30:01.590Z,88.54
2018-03-06T19:32:29.972Z,88.46
2018-03-06T19:34:59.064Z,88.36
2018-03-06T19:37:28.219Z,88.44
2018-03-06T19:39:57.543Z,88.42
2018-03-06T19:42:25.952Z,88.33
2018-03-06T19:44:55.038Z,88.40
2018-03-06T19:47:25.078Z,88.40
2018-03-06T19:49:53.533Z,88.41
2018-03-06T19:52:22.699Z,88.36
2018-03-06T19:54:51.838Z,88.35
2018-03-06T19:57:20.971Z,88.27
2018-03-06T19:59:49.300Z,88.27
2018-03-06T20:02:18.422Z,88.25
2018-03-06T20:04:46.748Z,88.27
2018-03-06T20:07:15.122Z,88.27
2018-03-06T20:09:43.455Z,88.35
2018-03-06T20:12:11.794Z,88.32
2018-03-06T20:14:46.417Z,88.34
2018-03-06T20:17:15.159Z,88.36
2018-03-06T20:19:43.506Z,88.28
2018-03-06T20:22:11.838Z,88.43
2018-03-06T20:24:45.636Z,88.41
2018-03-06T20:27:14.775Z,88.42
2018-03-06T20:29:43.894Z,88.42
2018-03-06T20:32:18.679Z,88.37
2018-03-06T20:34:46.998Z,88.29
2018-03-06T20:37:15.407Z,88.18
2018-03-06T20:39:49.285Z,88.12
2018-03-06T20:42:17.648Z,87.98
2018-03-06T20:44:46.747Z,87.85
2018-03-06T20:47:20.519Z,87.99
2018-03-06T20:49:48.914Z,87.94
2018-03-06T20:52:17.997Z,88.05
2018-03-06T20:54:51.716Z,88.06
2018-03-06T20:57:20.430Z,88.01
2018-03-06T20:59:48.763Z,88.06
2018-03-06T21:02:17.899Z,88.08
2018-03-06T21:04:46.250Z,88.04
2018-03-06T21:07:15.379Z,88.04
2018-03-06T21:09:43.684Z,88.05
2018-03-06T21:12:12.057Z,87.93
2018-03-06T21:14:40.372Z,87.87
2018-03-06T21:17:09.471Z,87.80
2018-03-06T21:19:38.620Z,87.73
2018-03-06T21:22:06.938Z,87.62
2018-03-06T21:24:36.416Z,87.70
2018-03-06T21:27:04.724Z,87.54
2018-03-06T21:29:33.859Z,87.55
2018-03-06T21:32:02.184Z,87.60
2018-03-06T21:34:30.514Z,87.58
2018-03-06T21:36:58.862Z,87.54
2018-03-06T21:39:28.010Z,87.57
2018-03-06T21:41:56.322Z,87.53
2018-03-06T21:44:24.651Z,87.56
2018-03-06T21:46:53.090Z,87.50
2018-03-06T21:49:21.424Z,87.66
2018-03-06T21:51:49.794Z,87.70
2018-03-06T21:54:18.151Z,87.89
2018-03-06T21:56:46.469Z,87.88
2018-03-06T21:59:14.837Z,88.01
2018-03-06T22:01:43.930Z,88.02
2018-03-06T22:04:12.258Z,88.02
2018-03-06T22:06:40.588Z,88.06
2018-03-06T22:09:08.954Z,88.16
2018-03-06T22:11:37.281Z,88.11
2018-03-06T22:14:06.366Z,88.09
2018-03-06T22:16:35.480Z,88.16
2018-03-06T22:19:03.798Z,88.15
2018-03-06T22:21:32.146Z,88.23
2018-03-06T22:24:00.485Z,88.25
2018-03-06T22:26:28.840Z,88.37
2018-03-06T22:28:57.184Z,88.48
2018-03-06T22:31:25.524Z,88.56
2018-03-06T22:33:54.607Z,88.46
2018-03-06T22:36:22.994Z,88.41
2018-03-06T22:38:51.310Z,88.43
2018-03-06T22:41:19.626Z,88.43
2018-03-06T22:43:48.725Z,88.38
2018-03-06T22:46:17.047Z,88.24
2018-03-06T22:48:45.458Z,88.23
2018-03-06T22:51:13.878Z,88.22
2018-03-06T22:53:42.966Z,88.24
2018-03-06T22:56:11.329Z,88.20
2018-03-06T22:58:39.673Z,88.17
2018-03-06T23:01:07.982Z,88.24
2018-03-06T23:03:36.329Z,88.23
2018-03-06T23:06:04.665Z,88.27
2018-03-06T23:08:33.733Z,88.35
2018-03-06T23:11:02.080Z,88.34
2018-03-06T23:13:30.386Z,88.25
2018-03-06T23:15:58.758Z,88.33
2018-03-06T23:18:27.143Z,88.34
2018-03-06T23:20:55.452Z,88.41
2018-03-06T23:23:24.585Z,88.42
2018-03-06T23:25:52.936Z,88.38
2018-03-06T23:28:22.048Z,88.29
2018-03-06T23:30:50.389Z,88.33
2018-03-06T23:33:18.712Z,88.34
2018-03-06T23:35:47.052Z,88.32
2018-03-06T23:38:16.197Z,88.16
2018-03-06T23:40:44.569Z,88.08
2018-03-06T23:43:12.887Z,88.06
2018-03-06T23:45:41.221Z,88.09
2018-03-06T23:48:09.568Z,88.09
2018-03-06T23:50:37.877Z,88.05
2018-03-06T23:53:06.228Z,88.05
2018-03-06T23:55:34.565Z,88.10
2018-03-06T23:58:02.936Z,88.07
